sensor_id;sensor_type;location;lat;lon;timestamp;P1;durP1;ratioP1;P2;durP2;ratioP2
4365;SDS011;2196;47.422;9.656;2023-07-28T00:02:16;2.30;;;2.20;;
4365;SDS011;2196;47.422;9.656;2023-07-28T00:04:43;2.20;;;2.10;;
4365;SDS011;2196;47.422;9.656;2023-07-28T00:07:10;2.40;;;2.30;;
4365;SDS011;2196;47.422;9.656;2023-07-28T00:09:37;2.13;;;2.00;;
4365;SDS011;2196;47.422;9.656;2023-07-28T00:12:04;3.13;;;2.93;;
4365;SDS011;2196;47.422;9.656;2023-07-28T00:14:31;2.47;;;2.37;;
4365;SDS011;2196;47.422;9.656;2023-07-28T00:16:58;2.23;;;2.13;;
4365;SDS011;2196;47.422;9.656;2023-07-28T00:19:27;2.40;;;2.30;;
4365;SDS011;2196;47.422;9.656;2023-07-28T00:21:54;2.00;;;1.90;;
4365;SDS011;2196;47.422;9.656;2023-07-28T00:24:21;2.73;;;2.53;;
4365;SDS011;2196;47.422;9.656;2023-07-28T00:26:48;2.37;;;2.27;;
4365;SDS011;2196;47.422;9.656;2023-07-28T00:29:15;2.63;;;2.53;;
4365;SDS011;2196;47.422;9.656;2023-07-28T00:31:42;2.40;;;2.00;;
4365;SDS011;2196;47.422;9.656;2023-07-28T00:34:09;3.47;;;2.37;;
4365;SDS011;2196;47.422;9.656;2023-07-28T00:36:37;3.00;;;2.70;;
4365;SDS011;2196;47.422;9.656;2023-07-28T00:39:05;5.13;;;2.43;;
4365;SDS011;2196;47.422;9.656;2023-07-28T00:41:32;2.33;;;2.17;;
4365;SDS011;2196;47.422;9.656;2023-07-28T00:43:59;2.87;;;2.10;;
4365;SDS011;2196;47.422;9.656;2023-07-28T00:46:26;3.57;;;3.30;;
4365;SDS011;2196;47.422;9.656;2023-07-28T00:48:53;3.70;;;2.27;;
4365;SDS011;2196;47.422;9.656;2023-07-28T00:51:21;1.97;;;1.87;;
4365;SDS011;2196;47.422;9.656;2023-07-28T00:53:49;2.33;;;2.23;;
4365;SDS011;2196;47.422;9.656;2023-07-28T00:56:18;1.97;;;1.87;;
4365;SDS011;2196;47.422;9.656;2023-07-28T00:58:46;2.87;;;2.60;;
4365;SDS011;2196;47.422;9.656;2023-07-28T01:01:13;3.00;;;2.00;;
4365;SDS011;2196;47.422;9.656;2023-07-28T01:03:40;2.87;;;2.67;;
4365;SDS011;2196;47.422;9.656;2023-07-28T01:06:10;2.50;;;2.30;;
4365;SDS011;2196;47.422;9.656;2023-07-28T01:08:46;1.90;;;1.73;;
4365;SDS011;2196;47.422;9.656;2023-07-28T01:11:22;3.77;;;1.83;;
4365;SDS011;2196;47.422;9.656;2023-07-28T01:13:49;1.77;;;1.60;;
4365;SDS011;2196;47.422;9.656;2023-07-28T01:16:15;1.80;;;1.70;;
4365;SDS011;2196;47.422;9.656;2023-07-28T01:18:43;2.17;;;1.90;;
4365;SDS011;2196;47.422;9.656;2023-07-28T01:21:16;1.87;;;1.77;;
4365;SDS011;2196;47.422;9.656;2023-07-28T01:23:48;2.73;;;2.30;;
4365;SDS011;2196;47.422;9.656;2023-07-28T01:26:28;2.60;;;2.40;;
4365;SDS011;2196;47.422;9.656;2023-07-28T01:28:59;2.50;;;2.40;;
4365;SDS011;2196;47.422;9.656;2023-07-28T01:31:27;2.47;;;2.33;;
4365;SDS011;2196;47.422;9.656;2023-07-28T01:33:54;2.30;;;2.13;;
4365;SDS011;2196;47.422;9.656;2023-07-28T01:36:21;3.67;;;2.50;;
4365;SDS011;2196;47.422;9.656;2023-07-28T01:38:48;4.00;;;2.77;;
4365;SDS011;2196;47.422;9.656;2023-07-28T01:41:14;2.30;;;2.10;;
4365;SDS011;2196;47.422;9.656;2023-07-28T01:43:43;4.00;;;2.63;;
4365;SDS011;2196;47.422;9.656;2023-07-28T01:46:10;2.83;;;1.80;;
4365;SDS011;2196;47.422;9.656;2023-07-28T01:48:37;3.03;;;1.90;;
4365;SDS011;2196;47.422;9.656;2023-07-28T01:51:04;1.40;;;1.30;;
4365;SDS011;2196;47.422;9.656;2023-07-28T01:53:30;1.73;;;1.63;;
4365;SDS011;2196;47.422;9.656;2023-07-28T01:55:57;1.50;;;1.40;;
4365;SDS011;2196;47.422;9.656;2023-07-28T01:58:25;1.77;;;1.67;;
4365;SDS011;2196;47.422;9.656;2023-07-28T02:00:54;4.10;;;2.30;;
4365;SDS011;2196;47.422;9.656;2023-07-28T02:03:21;1.60;;;1.57;;
4365;SDS011;2196;47.422;9.656;2023-07-28T02:05:48;1.73;;;1.63;;
4365;SDS011;2196;47.422;9.656;2023-07-28T02:08:15;2.10;;;2.00;;
4365;SDS011;2196;47.422;9.656;2023-07-28T02:10:42;2.00;;;1.90;;
4365;SDS011;2196;47.422;9.656;2023-07-28T02:13:10;1.70;;;1.60;;
4365;SDS011;2196;47.422;9.656;2023-07-28T02:15:37;3.07;;;1.83;;
4365;SDS011;2196;47.422;9.656;2023-07-28T02:18:05;2.30;;;1.77;;
4365;SDS011;2196;47.422;9.656;2023-07-28T02:20:32;2.17;;;2.03;;
4365;SDS011;2196;47.422;9.656;2023-07-28T02:23:00;2.30;;;2.10;;
4365;SDS011;2196;47.422;9.656;2023-07-28T02:25:27;2.20;;;2.03;;
4365;SDS011;2196;47.422;9.656;2023-07-28T02:27:54;1.53;;;1.47;;
4365;SDS011;2196;47.422;9.656;2023-07-28T02:30:21;3.53;;;2.27;;
4365;SDS011;2196;47.422;9.656;2023-07-28T02:32:48;2.03;;;1.70;;
4365;SDS011;2196;47.422;9.656;2023-07-28T02:35:17;1.17;;;1.17;;
4365;SDS011;2196;47.422;9.656;2023-07-28T02:37:44;1.87;;;1.77;;
4365;SDS011;2196;47.422;9.656;2023-07-28T02:40:14;1.60;;;1.50;;
4365;SDS011;2196;47.422;9.656;2023-07-28T02:42:41;1.63;;;1.53;;
4365;SDS011;2196;47.422;9.656;2023-07-28T02:45:08;3.93;;;2.10;;
4365;SDS011;2196;47.422;9.656;2023-07-28T02:47:35;2.93;;;1.77;;
4365;SDS011;2196;47.422;9.656;2023-07-28T02:50:03;1.50;;;1.50;;
4365;SDS011;2196;47.422;9.656;2023-07-28T02:52:32;1.90;;;1.83;;
4365;SDS011;2196;47.422;9.656;2023-07-28T02:54:58;2.13;;;1.83;;
4365;SDS011;2196;47.422;9.656;2023-07-28T02:57:25;2.63;;;1.93;;
4365;SDS011;2196;47.422;9.656;2023-07-28T02:59:52;2.53;;;2.33;;
4365;SDS011;2196;47.422;9.656;2023-07-28T03:02:19;1.77;;;1.67;;
4365;SDS011;2196;47.422;9.656;2023-07-28T03:04:46;1.77;;;1.67;;
4365;SDS011;2196;47.422;9.656;2023-07-28T03:07:13;1.60;;;1.50;;
4365;SDS011;2196;47.422;9.656;2023-07-28T03:09:41;1.60;;;1.50;;
4365;SDS011;2196;47.422;9.656;2023-07-28T03:12:09;2.57;;;2.40;;
4365;SDS011;2196;47.422;9.656;2023-07-28T03:14:36;1.63;;;1.53;;
4365;SDS011;2196;47.422;9.656;2023-07-28T03:17:03;1.90;;;1.80;;
4365;SDS011;2196;47.422;9.656;2023-07-28T03:19:30;2.30;;;1.97;;
4365;SDS011;2196;47.422;9.656;2023-07-28T03:21:57;3.00;;;1.77;;
4365;SDS011;2196;47.422;9.656;2023-07-28T03:24:24;1.50;;;1.40;;
4365;SDS011;2196;47.422;9.656;2023-07-28T03:26:52;2.30;;;1.97;;
4365;SDS011;2196;47.422;9.656;2023-07-28T03:29:19;1.50;;;1.40;;
4365;SDS011;2196;47.422;9.656;2023-07-28T03:31:46;3.63;;;1.13;;
4365;SDS011;2196;47.422;9.656;2023-07-28T03:34:13;1.70;;;1.60;;
4365;SDS011;2196;47.422;9.656;2023-07-28T03:36:40;1.80;;;1.70;;
4365;SDS011;2196;47.422;9.656;2023-07-28T03:39:06;1.77;;;1.40;;
4365;SDS011;2196;47.422;9.656;2023-07-28T03:41:33;1.67;;;1.57;;
4365;SDS011;2196;47.422;9.656;2023-07-28T03:44:02;1.60;;;1.50;;
4365;SDS011;2196;47.422;9.656;2023-07-28T03:46:29;2.03;;;1.93;;
4365;SDS011;2196;47.422;9.656;2023-07-28T03:48:56;2.30;;;2.20;;
4365;SDS011;2196;47.422;9.656;2023-07-28T03:51:25;2.03;;;1.27;;
4365;SDS011;2196;47.422;9.656;2023-07-28T03:53:52;1.43;;;1.30;;
4365;SDS011;2196;47.422;9.656;2023-07-28T03:56:19;1.30;;;1.30;;
4365;SDS011;2196;47.422;9.656;2023-07-28T03:58:45;2.83;;;1.47;;
4365;SDS011;2196;47.422;9.656;2023-07-28T04:01:14;2.00;;;1.90;;
4365;SDS011;2196;47.422;9.656;2023-07-28T04:03:41;2.00;;;1.77;;
4365;SDS011;2196;47.422;9.656;2023-07-28T04:06:09;1.93;;;1.83;;
4365;SDS011;2196;47.422;9.656;2023-07-28T04:08:37;2.27;;;2.07;;
4365;SDS011;2196;47.422;9.656;2023-07-28T04:11:04;1.57;;;1.43;;
4365;SDS011;2196;47.422;9.656;2023-07-28T04:13:31;1.80;;;1.70;;
4365;SDS011;2196;47.422;9.656;2023-07-28T04:15:57;2.00;;;1.90;;
4365;SDS011;2196;47.422;9.656;2023-07-28T04:18:26;1.80;;;1.70;;
4365;SDS011;2196;47.422;9.656;2023-07-28T04:20:53;1.70;;;1.43;;
4365;SDS011;2196;47.422;9.656;2023-07-28T04:23:20;1.30;;;1.20;;
4365;SDS011;2196;47.422;9.656;2023-07-28T04:25:47;1.57;;;1.53;;
4365;SDS011;2196;47.422;9.656;2023-07-28T04:28:14;3.37;;;2.07;;
4365;SDS011;2196;47.422;9.656;2023-07-28T04:30:41;2.23;;;2.00;;
4365;SDS011;2196;47.422;9.656;2023-07-28T04:33:08;5.33;;;3.87;;
4365;SDS011;2196;47.422;9.656;2023-07-28T04:35:36;5.77;;;4.40;;
4365;SDS011;2196;47.422;9.656;2023-07-28T04:38:03;3.13;;;2.83;;
4365;SDS011;2196;47.422;9.656;2023-07-28T04:40:30;3.90;;;2.97;;
4365;SDS011;2196;47.422;9.656;2023-07-28T04:42:57;5.20;;;2.50;;
4365;SDS011;2196;47.422;9.656;2023-07-28T04:45:24;5.13;;;4.63;;
4365;SDS011;2196;47.422;9.656;2023-07-28T04:47:50;4.77;;;4.23;;
4365;SDS011;2196;47.422;9.656;2023-07-28T04:50:18;9.53;;;5.00;;
4365;SDS011;2196;47.422;9.656;2023-07-28T04:52:49;4.73;;;4.33;;
4365;SDS011;2196;47.422;9.656;2023-07-28T04:55:16;5.30;;;4.80;;
4365;SDS011;2196;47.422;9.656;2023-07-28T04:57:43;4.83;;;3.77;;
4365;SDS011;2196;47.422;9.656;2023-07-28T05:00:10;4.80;;;3.10;;
4365;SDS011;2196;47.422;9.656;2023-07-28T05:02:38;3.10;;;2.90;;
4365;SDS011;2196;47.422;9.656;2023-07-28T05:05:05;3.93;;;3.63;;
4365;SDS011;2196;47.422;9.656;2023-07-28T05:07:33;3.33;;;3.13;;
4365;SDS011;2196;47.422;9.656;2023-07-28T05:10:01;2.97;;;2.77;;
4365;SDS011;2196;47.422;9.656;2023-07-28T05:12:29;2.50;;;2.30;;
4365;SDS011;2196;47.422;9.656;2023-07-28T05:14:56;2.43;;;2.23;;
4365;SDS011;2196;47.422;9.656;2023-07-28T05:17:23;3.70;;;3.40;;
4365;SDS011;2196;47.422;9.656;2023-07-28T05:19:50;2.60;;;2.50;;
4365;SDS011;2196;47.422;9.656;2023-07-28T05:22:17;3.07;;;2.57;;
4365;SDS011;2196;47.422;9.656;2023-07-28T05:24:45;2.50;;;2.30;;
4365;SDS011;2196;47.422;9.656;2023-07-28T05:27:13;3.23;;;3.03;;
4365;SDS011;2196;47.422;9.656;2023-07-28T05:29:41;2.80;;;2.70;;
4365;SDS011;2196;47.422;9.656;2023-07-28T05:32:08;2.30;;;2.20;;
4365;SDS011;2196;47.422;9.656;2023-07-28T05:34:35;2.03;;;1.93;;
4365;SDS011;2196;47.422;9.656;2023-07-28T05:37:02;2.20;;;1.90;;
4365;SDS011;2196;47.422;9.656;2023-07-28T05:39:29;2.03;;;1.83;;
4365;SDS011;2196;47.422;9.656;2023-07-28T05:41:56;2.20;;;2.10;;
4365;SDS011;2196;47.422;9.656;2023-07-28T05:44:25;2.10;;;2.00;;
4365;SDS011;2196;47.422;9.656;2023-07-28T05:46:52;5.80;;;5.17;;
4365;SDS011;2196;47.422;9.656;2023-07-28T05:49:19;4.77;;;4.37;;
4365;SDS011;2196;47.422;9.656;2023-07-28T05:51:46;4.90;;;4.50;;
4365;SDS011;2196;47.422;9.656;2023-07-28T05:54:13;4.67;;;4.13;;
4365;SDS011;2196;47.422;9.656;2023-07-28T05:56:40;6.23;;;5.63;;
4365;SDS011;2196;47.422;9.656;2023-07-28T05:59:08;6.83;;;4.97;;
4365;SDS011;2196;47.422;9.656;2023-07-28T06:01:36;8.90;;;6.43;;
4365;SDS011;2196;47.422;9.656;2023-07-28T06:04:03;8.67;;;6.03;;
4365;SDS011;2196;47.422;9.656;2023-07-28T06:06:30;9.43;;;8.07;;
4365;SDS011;2196;47.422;9.656;2023-07-28T06:08:57;16.23;;;6.63;;
4365;SDS011;2196;47.422;9.656;2023-07-28T06:11:24;5.37;;;4.37;;
4365;SDS011;2196;47.422;9.656;2023-07-28T06:13:51;4.73;;;4.30;;
4365;SDS011;2196;47.422;9.656;2023-07-28T06:16:18;3.33;;;2.80;;
4365;SDS011;2196;47.422;9.656;2023-07-28T06:18:47;2.70;;;2.60;;
4365;SDS011;2196;47.422;9.656;2023-07-28T06:21:14;2.83;;;2.63;;
4365;SDS011;2196;47.422;9.656;2023-07-28T06:23:41;2.23;;;1.83;;
4365;SDS011;2196;47.422;9.656;2023-07-28T06:26:08;2.03;;;1.93;;
4365;SDS011;2196;47.422;9.656;2023-07-28T06:28:35;2.17;;;2.07;;
4365;SDS011;2196;47.422;9.656;2023-07-28T06:31:02;2.07;;;1.97;;
4365;SDS011;2196;47.422;9.656;2023-07-28T06:33:29;4.70;;;1.97;;
4365;SDS011;2196;47.422;9.656;2023-07-28T06:35:58;2.50;;;2.30;;
4365;SDS011;2196;47.422;9.656;2023-07-28T06:38:25;3.90;;;2.00;;
4365;SDS011;2196;47.422;9.656;2023-07-28T06:40:52;2.37;;;2.20;;
4365;SDS011;2196;47.422;9.656;2023-07-28T06:43:20;3.57;;;2.40;;
4365;SDS011;2196;47.422;9.656;2023-07-28T06:45:50;3.67;;;2.23;;
4365;SDS011;2196;47.422;9.656;2023-07-28T06:48:17;2.23;;;2.03;;
4365;SDS011;2196;47.422;9.656;2023-07-28T06:50:44;2.67;;;1.73;;
4365;SDS011;2196;47.422;9.656;2023-07-28T06:53:12;3.07;;;2.07;;
4365;SDS011;2196;47.422;9.656;2023-07-28T06:55:39;2.93;;;2.33;;
4365;SDS011;2196;47.422;9.656;2023-07-28T06:58:06;2.30;;;2.10;;
4365;SDS011;2196;47.422;9.656;2023-07-28T07:00:34;3.17;;;1.87;;
4365;SDS011;2196;47.422;9.656;2023-07-28T07:03:01;3.80;;;2.20;;
4365;SDS011;2196;47.422;9.656;2023-07-28T07:05:28;2.13;;;2.03;;
4365;SDS011;2196;47.422;9.656;2023-07-28T07:07:56;3.70;;;1.90;;
4365;SDS011;2196;47.422;9.656;2023-07-28T07:10:24;2.90;;;2.70;;
4365;SDS011;2196;47.422;9.656;2023-07-28T07:12:51;2.50;;;1.57;;
4365;SDS011;2196;47.422;9.656;2023-07-28T07:15:18;1.93;;;1.83;;
4365;SDS011;2196;47.422;9.656;2023-07-28T07:17:45;4.13;;;1.93;;
4365;SDS011;2196;47.422;9.656;2023-07-28T07:20:12;1.83;;;1.73;;
4365;SDS011;2196;47.422;9.656;2023-07-28T07:22:40;2.33;;;1.43;;
4365;SDS011;2196;47.422;9.656;2023-07-28T07:25:07;2.33;;;2.13;;
4365;SDS011;2196;47.422;9.656;2023-07-28T07:27:35;1.70;;;1.60;;
4365;SDS011;2196;47.422;9.656;2023-07-28T07:30:03;1.43;;;1.33;;
4365;SDS011;2196;47.422;9.656;2023-07-28T07:32:32;2.40;;;1.30;;
4365;SDS011;2196;47.422;9.656;2023-07-28T07:35:00;2.63;;;1.80;;
4365;SDS011;2196;47.422;9.656;2023-07-28T07:37:27;2.67;;;1.67;;
4365;SDS011;2196;47.422;9.656;2023-07-28T07:39:53;5.13;;;1.87;;
4365;SDS011;2196;47.422;9.656;2023-07-28T07:42:21;3.83;;;1.70;;
4365;SDS011;2196;47.422;9.656;2023-07-28T07:44:49;2.13;;;1.93;;
4365;SDS011;2196;47.422;9.656;2023-07-28T07:47:16;1.93;;;1.83;;
4365;SDS011;2196;47.422;9.656;2023-07-28T07:49:43;2.00;;;1.80;;
4365;SDS011;2196;47.422;9.656;2023-07-28T07:52:10;1.63;;;1.47;;
4365;SDS011;2196;47.422;9.656;2023-07-28T07:54:37;2.30;;;2.10;;
4365;SDS011;2196;47.422;9.656;2023-07-28T07:57:04;2.87;;;1.80;;
4365;SDS011;2196;47.422;9.656;2023-07-28T07:59:32;1.37;;;1.23;;
4365;SDS011;2196;47.422;9.656;2023-07-28T08:02:01;3.57;;;1.60;;
4365;SDS011;2196;47.422;9.656;2023-07-28T08:04:28;1.80;;;1.70;;
4365;SDS011;2196;47.422;9.656;2023-07-28T08:06:56;1.97;;;1.40;;
4365;SDS011;2196;47.422;9.656;2023-07-28T08:09:23;3.70;;;2.10;;
4365;SDS011;2196;47.422;9.656;2023-07-28T08:11:50;3.07;;;2.83;;
4365;SDS011;2196;47.422;9.656;2023-07-28T08:14:18;2.00;;;1.90;;
4365;SDS011;2196;47.422;9.656;2023-07-28T08:16:45;2.17;;;1.97;;
4365;SDS011;2196;47.422;9.656;2023-07-28T08:19:13;1.97;;;1.87;;
4365;SDS011;2196;47.422;9.656;2023-07-28T08:21:40;2.23;;;1.37;;
4365;SDS011;2196;47.422;9.656;2023-07-28T08:24:07;1.33;;;1.33;;
4365;SDS011;2196;47.422;9.656;2023-07-28T08:26:34;2.00;;;1.63;;
4365;SDS011;2196;47.422;9.656;2023-07-28T08:29:01;2.10;;;1.90;;
4365;SDS011;2196;47.422;9.656;2023-07-28T08:31:28;2.10;;;1.60;;
4365;SDS011;2196;47.422;9.656;2023-07-28T08:33:55;2.37;;;2.17;;
4365;SDS011;2196;47.422;9.656;2023-07-28T08:36:23;2.60;;;1.70;;
4365;SDS011;2196;47.422;9.656;2023-07-28T08:38:50;1.90;;;1.80;;
4365;SDS011;2196;47.422;9.656;2023-07-28T08:41:17;1.57;;;1.40;;
4365;SDS011;2196;47.422;9.656;2023-07-28T08:43:44;2.77;;;1.67;;
4365;SDS011;2196;47.422;9.656;2023-07-28T08:46:11;1.57;;;1.40;;
4365;SDS011;2196;47.422;9.656;2023-07-28T08:48:38;5.50;;;1.93;;
4365;SDS011;2196;47.422;9.656;2023-07-28T08:51:05;1.90;;;1.80;;
4365;SDS011;2196;47.422;9.656;2023-07-28T08:53:34;2.20;;;1.87;;
4365;SDS011;2196;47.422;9.656;2023-07-28T08:56:02;2.23;;;2.07;;
4365;SDS011;2196;47.422;9.656;2023-07-28T08:58:29;2.77;;;1.63;;
4365;SDS011;2196;47.422;9.656;2023-07-28T09:00:56;2.43;;;2.23;;
4365;SDS011;2196;47.422;9.656;2023-07-28T09:03:26;2.37;;;2.17;;
4365;SDS011;2196;47.422;9.656;2023-07-28T09:05:54;2.33;;;2.00;;
4365;SDS011;2196;47.422;9.656;2023-07-28T09:08:26;2.97;;;1.87;;
4365;SDS011;2196;47.422;9.656;2023-07-28T09:10:54;1.67;;;1.67;;
4365;SDS011;2196;47.422;9.656;2023-07-28T09:13:21;1.65;;;1.55;;
4365;SDS011;2196;47.422;9.656;2023-07-28T09:15:49;2.58;;;1.77;;
4365;SDS011;2196;47.422;9.656;2023-07-28T09:18:16;1.88;;;1.60;;
4365;SDS011;2196;47.422;9.656;2023-07-28T09:20:44;1.90;;;1.63;;
4365;SDS011;2196;47.422;9.656;2023-07-28T09:23:12;2.25;;;1.67;;
4365;SDS011;2196;47.422;9.656;2023-07-28T09:25:41;1.73;;;1.67;;
4365;SDS011;2196;47.422;9.656;2023-07-28T09:28:09;1.95;;;1.85;;
4365;SDS011;2196;47.422;9.656;2023-07-28T09:30:44;2.13;;;1.63;;
4365;SDS011;2196;47.422;9.656;2023-07-28T09:33:12;2.30;;;2.10;;
4365;SDS011;2196;47.422;9.656;2023-07-28T09:35:49;2.22;;;2.13;;
4365;SDS011;2196;47.422;9.656;2023-07-28T09:38:16;2.42;;;1.88;;
4365;SDS011;2196;47.422;9.656;2023-07-28T09:40:45;2.08;;;1.95;;
4365;SDS011;2196;47.422;9.656;2023-07-28T09:43:14;2.08;;;1.88;;
4365;SDS011;2196;47.422;9.656;2023-07-28T09:45:41;2.17;;;1.97;;
4365;SDS011;2196;47.422;9.656;2023-07-28T09:48:10;1.85;;;1.85;;
4365;SDS011;2196;47.422;9.656;2023-07-28T09:50:38;1.67;;;1.67;;
4365;SDS011;2196;47.422;9.656;2023-07-28T09:53:08;3.95;;;1.77;;
4365;SDS011;2196;47.422;9.656;2023-07-28T09:55:35;2.00;;;1.83;;
4365;SDS011;2196;47.422;9.656;2023-07-28T09:58:05;1.87;;;1.77;;
4365;SDS011;2196;47.422;9.656;2023-07-28T10:00:38;2.17;;;2.07;;
4365;SDS011;2196;47.422;9.656;2023-07-28T10:03:06;2.10;;;1.90;;
4365;SDS011;2196;47.422;9.656;2023-07-28T10:05:34;2.10;;;1.93;;
4365;SDS011;2196;47.422;9.656;2023-07-28T10:08:02;2.70;;;2.53;;
4365;SDS011;2196;47.422;9.656;2023-07-28T10:10:30;1.60;;;1.60;;
4365;SDS011;2196;47.422;9.656;2023-07-28T10:12:58;2.43;;;2.10;;
4365;SDS011;2196;47.422;9.656;2023-07-28T10:15:29;2.07;;;1.97;;
4365;SDS011;2196;47.422;9.656;2023-07-28T10:17:59;2.30;;;2.10;;
4365;SDS011;2196;47.422;9.656;2023-07-28T10:20:26;2.30;;;2.20;;
4365;SDS011;2196;47.422;9.656;2023-07-28T10:22:58;1.67;;;1.60;;
4365;SDS011;2196;47.422;9.656;2023-07-28T10:25:30;2.08;;;1.90;;
4365;SDS011;2196;47.422;9.656;2023-07-28T10:27:59;1.95;;;1.90;;
4365;SDS011;2196;47.422;9.656;2023-07-28T10:30:27;1.90;;;1.80;;
4365;SDS011;2196;47.422;9.656;2023-07-28T10:32:55;2.30;;;2.17;;
4365;SDS011;2196;47.422;9.656;2023-07-28T10:35:25;2.00;;;1.90;;
4365;SDS011;2196;47.422;9.656;2023-07-28T10:37:54;1.90;;;1.67;;
4365;SDS011;2196;47.422;9.656;2023-07-28T10:40:22;1.60;;;1.50;;
4365;SDS011;2196;47.422;9.656;2023-07-28T10:42:56;2.10;;;2.00;;
4365;SDS011;2196;47.422;9.656;2023-07-28T10:45:24;2.08;;;1.70;;
4365;SDS011;2196;47.422;9.656;2023-07-28T10:47:53;2.55;;;1.65;;
4365;SDS011;2196;47.422;9.656;2023-07-28T10:50:22;2.50;;;1.98;;
4365;SDS011;2196;47.422;9.656;2023-07-28T10:52:50;3.25;;;1.95;;
4365;SDS011;2196;47.422;9.656;2023-07-28T10:55:18;2.47;;;1.75;;
4365;SDS011;2196;47.422;9.656;2023-07-28T10:57:47;2.55;;;2.45;;
4365;SDS011;2196;47.422;9.656;2023-07-28T11:00:18;2.10;;;2.00;;
4365;SDS011;2196;47.422;9.656;2023-07-28T11:02:49;1.67;;;1.58;;
4365;SDS011;2196;47.422;9.656;2023-07-28T11:05:19;1.50;;;1.50;;
4365;SDS011;2196;47.422;9.656;2023-07-28T11:07:48;1.55;;;1.45;;
4365;SDS011;2196;47.422;9.656;2023-07-28T11:10:21;1.90;;;1.80;;
4365;SDS011;2196;47.422;9.656;2023-07-28T11:12:52;1.88;;;1.50;;
4365;SDS011;2196;47.422;9.656;2023-07-28T11:15:19;2.03;;;1.92;;
4365;SDS011;2196;47.422;9.656;2023-07-28T11:17:47;1.92;;;1.83;;
4365;SDS011;2196;47.422;9.656;2023-07-28T11:20:15;1.88;;;1.77;;
4365;SDS011;2196;47.422;9.656;2023-07-28T11:22:42;1.58;;;1.58;;
4365;SDS011;2196;47.422;9.656;2023-07-28T11:25:11;1.77;;;1.77;;
4365;SDS011;2196;47.422;9.656;2023-07-28T11:27:38;2.70;;;1.83;;
4365;SDS011;2196;47.422;9.656;2023-07-28T11:30:07;1.23;;;1.17;;
4365;SDS011;2196;47.422;9.656;2023-07-28T11:32:36;2.10;;;2.10;;
4365;SDS011;2196;47.422;9.656;2023-07-28T11:35:04;1.88;;;1.77;;
4365;SDS011;2196;47.422;9.656;2023-07-28T11:37:32;2.05;;;2.05;;
4365;SDS011;2196;47.422;9.656;2023-07-28T11:40:00;1.73;;;1.73;;
4365;SDS011;2196;47.422;9.656;2023-07-28T11:42:33;2.38;;;1.73;;
4365;SDS011;2196;47.422;9.656;2023-07-28T11:45:01;2.30;;;2.20;;
4365;SDS011;2196;47.422;9.656;2023-07-28T11:47:29;2.17;;;2.08;;
4365;SDS011;2196;47.422;9.656;2023-07-28T11:49:56;1.58;;;1.48;;
4365;SDS011;2196;47.422;9.656;2023-07-28T11:52:28;2.33;;;2.22;;
4365;SDS011;2196;47.422;9.656;2023-07-28T11:54:57;2.17;;;2.00;;
4365;SDS011;2196;47.422;9.656;2023-07-28T11:57:25;2.10;;;2.00;;
4365;SDS011;2196;47.422;9.656;2023-07-28T11:59:54;2.85;;;1.80;;
4365;SDS011;2196;47.422;9.656;2023-07-28T12:02:24;1.92;;;1.77;;
4365;SDS011;2196;47.422;9.656;2023-07-28T12:04:52;1.90;;;1.73;;
4365;SDS011;2196;47.422;9.656;2023-07-28T12:07:27;1.52;;;1.52;;
4365;SDS011;2196;47.422;9.656;2023-07-28T12:09:55;1.77;;;1.75;;
4365;SDS011;2196;47.422;9.656;2023-07-28T12:12:25;3.28;;;3.08;;
4365;SDS011;2196;47.422;9.656;2023-07-28T12:14:55;7.78;;;6.25;;
4365;SDS011;2196;47.422;9.656;2023-07-28T12:17:25;3.65;;;3.33;;
4365;SDS011;2196;47.422;9.656;2023-07-28T12:20:01;3.00;;;2.90;;
4365;SDS011;2196;47.422;9.656;2023-07-28T12:22:35;3.22;;;3.03;;
4365;SDS011;2196;47.422;9.656;2023-07-28T12:25:03;1.90;;;1.90;;
4365;SDS011;2196;47.422;9.656;2023-07-28T12:27:30;2.10;;;2.00;;
4365;SDS011;2196;47.422;9.656;2023-07-28T12:29:59;2.78;;;2.05;;
4365;SDS011;2196;47.422;9.656;2023-07-28T12:32:26;1.70;;;1.70;;
4365;SDS011;2196;47.422;9.656;2023-07-28T12:34:53;2.38;;;2.28;;
4365;SDS011;2196;47.422;9.656;2023-07-28T12:37:20;1.77;;;1.77;;
4365;SDS011;2196;47.422;9.656;2023-07-28T12:39:48;2.20;;;2.10;;
4365;SDS011;2196;47.422;9.656;2023-07-28T12:42:16;1.98;;;1.85;;
4365;SDS011;2196;47.422;9.656;2023-07-28T12:44:43;2.03;;;2.00;;
4365;SDS011;2196;47.422;9.656;2023-07-28T12:47:11;2.13;;;2.03;;
4365;SDS011;2196;47.422;9.656;2023-07-28T12:49:38;2.25;;;2.05;;
4365;SDS011;2196;47.422;9.656;2023-07-28T12:52:05;2.25;;;2.15;;
4365;SDS011;2196;47.422;9.656;2023-07-28T12:54:34;2.03;;;1.65;;
4365;SDS011;2196;47.422;9.656;2023-07-28T12:57:01;2.05;;;2.05;;
4365;SDS011;2196;47.422;9.656;2023-07-28T12:59:29;2.67;;;1.95;;
4365;SDS011;2196;47.422;9.656;2023-07-28T13:01:56;1.80;;;1.70;;
4365;SDS011;2196;47.422;9.656;2023-07-28T13:04:25;1.60;;;1.60;;
4365;SDS011;2196;47.422;9.656;2023-07-28T13:06:52;2.60;;;2.13;;
4365;SDS011;2196;47.422;9.656;2023-07-28T13:09:19;2.50;;;2.40;;
4365;SDS011;2196;47.422;9.656;2023-07-28T13:11:46;2.13;;;1.92;;
4365;SDS011;2196;47.422;9.656;2023-07-28T13:14:13;2.33;;;2.22;;
4365;SDS011;2196;47.422;9.656;2023-07-28T13:16:40;2.13;;;1.92;;
4365;SDS011;2196;47.422;9.656;2023-07-28T13:19:07;1.80;;;1.80;;
4365;SDS011;2196;47.422;9.656;2023-07-28T13:21:35;2.38;;;2.30;;
4365;SDS011;2196;47.422;9.656;2023-07-28T13:24:02;2.58;;;2.38;;
4365;SDS011;2196;47.422;9.656;2023-07-28T13:26:29;2.17;;;2.08;;
4365;SDS011;2196;47.422;9.656;2023-07-28T13:28:57;2.00;;;1.90;;
4365;SDS011;2196;47.422;9.656;2023-07-28T13:31:26;2.20;;;2.10;;
4365;SDS011;2196;47.422;9.656;2023-07-28T13:33:53;2.40;;;1.65;;
4365;SDS011;2196;47.422;9.656;2023-07-28T13:36:20;2.20;;;2.10;;
4365;SDS011;2196;47.422;9.656;2023-07-28T13:38:49;2.28;;;2.17;;
4365;SDS011;2196;47.422;9.656;2023-07-28T13:41:16;2.33;;;2.22;;
4365;SDS011;2196;47.422;9.656;2023-07-28T13:43:42;2.13;;;2.13;;
4365;SDS011;2196;47.422;9.656;2023-07-28T13:46:09;1.95;;;1.90;;
4365;SDS011;2196;47.422;9.656;2023-07-28T13:48:37;2.30;;;2.10;;
4365;SDS011;2196;47.422;9.656;2023-07-28T13:51:05;3.40;;;2.25;;
4365;SDS011;2196;47.422;9.656;2023-07-28T13:53:33;11.88;;;3.53;;
4365;SDS011;2196;47.422;9.656;2023-07-28T13:56:01;2.47;;;2.20;;
4365;SDS011;2196;47.422;9.656;2023-07-28T13:58:29;2.15;;;2.05;;
4365;SDS011;2196;47.422;9.656;2023-07-28T14:00:56;2.40;;;2.30;;
4365;SDS011;2196;47.422;9.656;2023-07-28T14:03:23;2.35;;;2.17;;
4365;SDS011;2196;47.422;9.656;2023-07-28T14:05:51;3.83;;;1.85;;
4365;SDS011;2196;47.422;9.656;2023-07-28T14:08:18;1.90;;;1.90;;
4365;SDS011;2196;47.422;9.656;2023-07-28T14:10:45;3.92;;;3.70;;
4365;SDS011;2196;47.422;9.656;2023-07-28T14:13:13;5.03;;;2.35;;
4365;SDS011;2196;47.422;9.656;2023-07-28T14:15:40;2.30;;;2.30;;
4365;SDS011;2196;47.422;9.656;2023-07-28T14:18:07;3.40;;;2.65;;
4365;SDS011;2196;47.422;9.656;2023-07-28T14:20:34;2.30;;;2.20;;
4365;SDS011;2196;47.422;9.656;2023-07-28T14:23:01;1.75;;;1.73;;
4365;SDS011;2196;47.422;9.656;2023-07-28T14:25:47;2.70;;;2.30;;
4365;SDS011;2196;47.422;9.656;2023-07-28T14:28:15;2.53;;;2.35;;
4365;SDS011;2196;47.422;9.656;2023-07-28T14:30:42;2.55;;;2.45;;
4365;SDS011;2196;47.422;9.656;2023-07-28T14:33:11;2.55;;;2.42;;
4365;SDS011;2196;47.422;9.656;2023-07-28T14:35:38;5.00;;;2.45;;
4365;SDS011;2196;47.422;9.656;2023-07-28T14:38:05;2.90;;;2.70;;
4365;SDS011;2196;47.422;9.656;2023-07-28T14:40:32;1.95;;;1.85;;
4365;SDS011;2196;47.422;9.656;2023-07-28T14:42:59;2.38;;;2.28;;
4365;SDS011;2196;47.422;9.656;2023-07-28T14:45:27;3.63;;;3.33;;
4365;SDS011;2196;47.422;9.656;2023-07-28T14:47:54;2.65;;;2.55;;
4365;SDS011;2196;47.422;9.656;2023-07-28T14:50:21;2.15;;;2.05;;
4365;SDS011;2196;47.422;9.656;2023-07-28T14:52:50;2.33;;;2.22;;
4365;SDS011;2196;47.422;9.656;2023-07-28T14:55:17;2.80;;;2.70;;
4365;SDS011;2196;47.422;9.656;2023-07-28T14:57:44;2.60;;;2.22;;
4365;SDS011;2196;47.422;9.656;2023-07-28T15:00:11;2.15;;;2.05;;
4365;SDS011;2196;47.422;9.656;2023-07-28T15:02:40;2.42;;;2.33;;
4365;SDS011;2196;47.422;9.656;2023-07-28T15:05:07;2.58;;;2.00;;
4365;SDS011;2196;47.422;9.656;2023-07-28T15:07:34;3.30;;;3.00;;
4365;SDS011;2196;47.422;9.656;2023-07-28T15:10:02;2.20;;;2.00;;
4365;SDS011;2196;47.422;9.656;2023-07-28T15:12:29;2.20;;;2.10;;
4365;SDS011;2196;47.422;9.656;2023-07-28T15:14:57;2.93;;;2.57;;
4365;SDS011;2196;47.422;9.656;2023-07-28T15:17:24;2.38;;;2.28;;
4365;SDS011;2196;47.422;9.656;2023-07-28T15:19:52;2.23;;;2.13;;